sensor_id;sensor_type;location;lat;lon;timestamp;P1;durP1;ratioP1;P2;durP2;ratioP2
47513;SDS011;33951;51.988;5.910;2023-11-21T00:00:34;44.67;;;23.97;;
47513;SDS011;33951;51.988;5.910;2023-11-21T05:24:19;72.72;;;35.92;;
47513;SDS011;33951;51.988;5.910;2023-11-21T08:39:38;48.47;;;30.83;;
47513;SDS011;33951;51.988;5.910;2023-11-21T08:42:06;54.13;;;31.52;;
47513;SDS011;33951;51.988;5.910;2023-11-21T08:44:38;54.97;;;30.83;;
47513;SDS011;33951;51.988;5.910;2023-11-21T08:47:05;51.67;;;29.63;;
47513;SDS011;33951;51.988;5.910;2023-11-21T08:49:30;48.70;;;29.75;;
47513;SDS011;33951;51.988;5.910;2023-11-21T09:35:52;66.07;;;38.85;;
47513;SDS011;33951;51.988;5.910;2023-11-21T09:52:29;53.00;;;29.97;;
47513;SDS011;33951;51.988;5.910;2023-11-21T10:01:38;55.45;;;30.67;;
47513;SDS011;33951;51.988;5.910;2023-11-21T10:04:08;50.83;;;29.30;;
47513;SDS011;33951;51.988;5.910;2023-11-21T10:06:40;46.13;;;27.50;;
47513;SDS011;33951;51.988;5.910;2023-11-21T10:12:25;40.80;;;27.13;;
47513;SDS011;33951;51.988;5.910;2023-11-21T10:15:07;44.47;;;26.20;;
47513;SDS011;33951;51.988;5.910;2023-11-21T10:17:36;44.85;;;26.55;;
47513;SDS011;33951;51.988;5.910;2023-11-21T10:20:08;43.88;;;27.17;;
47513;SDS011;33951;51.988;5.910;2023-11-21T10:22:38;36.55;;;24.33;;
47513;SDS011;33951;51.988;5.910;2023-11-21T10:25:12;39.35;;;26.83;;
47513;SDS011;33951;51.988;5.910;2023-11-21T10:27:41;37.90;;;24.60;;
47513;SDS011;33951;51.988;5.910;2023-11-21T10:30:08;30.13;;;19.65;;
47513;SDS011;33951;51.988;5.910;2023-11-21T10:32:40;29.00;;;19.60;;
47513;SDS011;33951;51.988;5.910;2023-11-21T10:35:07;26.08;;;18.02;;
47513;SDS011;33951;51.988;5.910;2023-11-21T10:37:43;25.85;;;18.58;;
47513;SDS011;33951;51.988;5.910;2023-11-21T10:40:11;26.48;;;18.20;;
47513;SDS011;33951;51.988;5.910;2023-11-21T10:42:37;22.60;;;16.83;;
47513;SDS011;33951;51.988;5.910;2023-11-21T10:45:07;27.45;;;18.65;;
47513;SDS011;33951;51.988;5.910;2023-11-21T10:47:43;24.73;;;18.42;;
47513;SDS011;33951;51.988;5.910;2023-11-21T10:50:09;28.90;;;17.75;;
47513;SDS011;33951;51.988;5.910;2023-11-21T10:52:39;26.55;;;17.10;;
47513;SDS011;33951;51.988;5.910;2023-11-21T10:55:20;23.90;;;15.95;;
47513;SDS011;33951;51.988;5.910;2023-11-21T10:57:51;21.73;;;14.77;;
47513;SDS011;33951;51.988;5.910;2023-11-21T11:00:23;29.55;;;17.25;;
47513;SDS011;33951;51.988;5.910;2023-11-21T11:02:52;27.75;;;17.77;;
47513;SDS011;33951;51.988;5.910;2023-11-21T11:05:22;28.15;;;18.42;;
47513;SDS011;33951;51.988;5.910;2023-11-21T11:07:51;23.65;;;16.67;;
47513;SDS011;33951;51.988;5.910;2023-11-21T11:10:30;31.48;;;20.08;;
47513;SDS011;33951;51.988;5.910;2023-11-21T11:12:56;23.85;;;17.05;;
47513;SDS011;33951;51.988;5.910;2023-11-21T11:15:24;22.63;;;16.75;;
47513;SDS011;33951;51.988;5.910;2023-11-21T11:17:50;28.00;;;17.30;;
47513;SDS011;33951;51.988;5.910;2023-11-21T11:20:17;24.95;;;16.77;;
47513;SDS011;33951;51.988;5.910;2023-11-21T11:28:20;31.95;;;18.58;;
47513;SDS011;33951;51.988;5.910;2023-11-21T11:31:05;26.55;;;18.35;;
47513;SDS011;33951;51.988;5.910;2023-11-21T11:33:59;33.92;;;20.25;;
47513;SDS011;33951;51.988;5.910;2023-11-21T11:37:00;26.58;;;17.20;;
47513;SDS011;33951;51.988;5.910;2023-11-21T11:41:55;27.35;;;17.88;;
47513;SDS011;33951;51.988;5.910;2023-11-21T11:47:23;23.67;;;16.38;;
47513;SDS011;33951;51.988;5.910;2023-11-21T11:50:02;25.67;;;16.92;;
47513;SDS011;33951;51.988;5.910;2023-11-21T11:52:39;28.27;;;18.52;;
47513;SDS011;33951;51.988;5.910;2023-11-21T11:55:13;23.80;;;16.42;;
47513;SDS011;33951;51.988;5.910;2023-11-21T11:57:40;25.83;;;17.33;;
47513;SDS011;33951;51.988;5.910;2023-11-21T12:00:19;24.08;;;16.20;;
47513;SDS011;33951;51.988;5.910;2023-11-21T12:02:53;26.48;;;17.27;;
47513;SDS011;33951;51.988;5.910;2023-11-21T12:05:22;21.40;;;15.73;;
47513;SDS011;33951;51.988;5.910;2023-11-21T12:10:19;19.45;;;13.50;;
47513;SDS011;33951;51.988;5.910;2023-11-21T12:13:00;19.40;;;14.70;;
47513;SDS011;33951;51.988;5.910;2023-11-21T12:15:26;17.55;;;12.23;;
47513;SDS011;33951;51.988;5.910;2023-11-21T12:17:56;14.63;;;11.57;;
47513;SDS011;33951;51.988;5.910;2023-11-21T12:20:26;19.70;;;12.52;;
47513;SDS011;33951;51.988;5.910;2023-11-21T12:22:53;15.38;;;12.65;;
47513;SDS011;33951;51.988;5.910;2023-11-21T12:25:20;25.02;;;14.35;;
47513;SDS011;33951;51.988;5.910;2023-11-21T12:27:51;29.88;;;19.55;;
47513;SDS011;33951;51.988;5.910;2023-11-21T12:30:21;27.15;;;16.40;;
47513;SDS011;33951;51.988;5.910;2023-11-21T12:32:52;28.40;;;17.85;;
47513;SDS011;33951;51.988;5.910;2023-11-21T12:35:18;34.35;;;20.73;;
47513;SDS011;33951;51.988;5.910;2023-11-21T12:37:46;29.48;;;19.33;;
47513;SDS011;33951;51.988;5.910;2023-11-21T12:40:12;35.55;;;21.60;;
47513;SDS011;33951;51.988;5.910;2023-11-21T12:42:42;33.17;;;19.83;;
47513;SDS011;33951;51.988;5.910;2023-11-21T12:47:55;22.15;;;16.58;;
47513;SDS011;33951;51.988;5.910;2023-11-21T12:50:26;26.40;;;17.10;;
47513;SDS011;33951;51.988;5.910;2023-11-21T12:52:59;27.25;;;17.77;;
47513;SDS011;33951;51.988;5.910;2023-11-21T12:55:29;29.40;;;18.38;;
47513;SDS011;33951;51.988;5.910;2023-11-21T12:58:02;29.02;;;20.10;;
47513;SDS011;33951;51.988;5.910;2023-11-21T13:00:38;36.42;;;21.63;;
47513;SDS011;33951;51.988;5.910;2023-11-21T13:03:04;31.48;;;19.95;;
47513;SDS011;33951;51.988;5.910;2023-11-21T13:05:33;31.25;;;20.92;;
47513;SDS011;33951;51.988;5.910;2023-11-21T13:08:01;31.35;;;21.50;;
47513;SDS011;33951;51.988;5.910;2023-11-21T13:10:29;35.95;;;22.67;;
47513;SDS011;33951;51.988;5.910;2023-11-21T13:12:57;31.30;;;22.05;;
47513;SDS011;33951;51.988;5.910;2023-11-21T13:15:25;38.10;;;22.60;;
47513;SDS011;33951;51.988;5.910;2023-11-21T13:17:52;34.50;;;22.25;;
47513;SDS011;33951;51.988;5.910;2023-11-21T13:20:21;35.83;;;23.45;;
47513;SDS011;33951;51.988;5.910;2023-11-21T13:22:48;34.42;;;22.83;;
47513;SDS011;33951;51.988;5.910;2023-11-21T13:25:14;34.53;;;23.92;;
47513;SDS011;33951;51.988;5.910;2023-11-21T13:27:43;31.38;;;20.67;;
47513;SDS011;33951;51.988;5.910;2023-11-21T13:30:10;36.22;;;22.42;;
47513;SDS011;33951;51.988;5.910;2023-11-21T13:32:41;29.45;;;19.48;;
47513;SDS011;33951;51.988;5.910;2023-11-21T13:35:07;36.35;;;22.30;;
47513;SDS011;33951;51.988;5.910;2023-11-21T13:37:46;27.23;;;19.13;;
47513;SDS011;33951;51.988;5.910;2023-11-21T13:40:19;25.83;;;17.75;;
47513;SDS011;33951;51.988;5.910;2023-11-21T13:45:13;25.00;;;17.55;;
47513;SDS011;33951;51.988;5.910;2023-11-21T13:47:39;30.40;;;19.55;;
47513;SDS011;33951;51.988;5.910;2023-11-21T13:50:05;29.52;;;19.15;;
47513;SDS011;33951;51.988;5.910;2023-11-21T13:52:39;31.35;;;19.85;;
47513;SDS011;33951;51.988;5.910;2023-11-21T13:55:04;29.88;;;18.92;;
47513;SDS011;33951;51.988;5.910;2023-11-21T13:57:32;29.80;;;19.88;;
47513;SDS011;33951;51.988;5.910;2023-11-21T13:59:58;31.80;;;19.17;;
47513;SDS011;33951;51.988;5.910;2023-11-21T14:02:26;28.20;;;17.65;;
47513;SDS011;33951;51.988;5.910;2023-11-21T14:04:59;32.30;;;16.48;;
47513;SDS011;33951;51.988;5.910;2023-11-21T14:10:01;27.58;;;15.60;;
47513;SDS011;33951;51.988;5.910;2023-11-21T14:12:28;28.17;;;16.23;;
47513;SDS011;33951;51.988;5.910;2023-11-21T14:14:54;22.65;;;13.90;;
47513;SDS011;33951;51.988;5.910;2023-11-21T14:17:20;21.48;;;14.50;;
47513;SDS011;33951;51.988;5.910;2023-11-21T14:19:47;29.73;;;18.30;;
47513;SDS011;33951;51.988;5.910;2023-11-21T14:22:19;28.88;;;17.88;;
47513;SDS011;33951;51.988;5.910;2023-11-21T14:24:45;30.65;;;18.90;;
47513;SDS011;33951;51.988;5.910;2023-11-21T14:27:11;29.77;;;17.10;;
47513;SDS011;33951;51.988;5.910;2023-11-21T14:29:40;28.42;;;16.50;;
47513;SDS011;33951;51.988;5.910;2023-11-21T14:32:08;23.80;;;15.27;;
47513;SDS011;33951;51.988;5.910;2023-11-21T14:34:34;23.50;;;14.73;;
47513;SDS011;33951;51.988;5.910;2023-11-21T14:37:00;24.05;;;16.52;;
47513;SDS011;33951;51.988;5.910;2023-11-21T14:39:30;30.45;;;17.10;;
47513;SDS011;33951;51.988;5.910;2023-11-21T14:42:00;20.45;;;14.13;;
47513;SDS011;33951;51.988;5.910;2023-11-21T14:44:28;21.58;;;14.65;;
47513;SDS011;33951;51.988;5.910;2023-11-21T14:47:00;22.25;;;14.27;;
47513;SDS011;33951;51.988;5.910;2023-11-21T14:49:33;25.33;;;16.17;;
47513;SDS011;33951;51.988;5.910;2023-11-21T14:52:14;24.80;;;15.52;;
47513;SDS011;33951;51.988;5.910;2023-11-21T14:54:59;34.42;;;19.23;;
47513;SDS011;33951;51.988;5.910;2023-11-21T14:57:51;25.13;;;17.65;;
47513;SDS011;33951;51.988;5.910;2023-11-21T15:00:34;25.70;;;17.85;;
47513;SDS011;33951;51.988;5.910;2023-11-21T15:03:44;33.78;;;20.75;;
47513;SDS011;33951;51.988;5.910;2023-11-21T15:06:39;30.42;;;20.55;;
47513;SDS011;33951;51.988;5.910;2023-11-21T15:09:07;33.72;;;22.33;;
47513;SDS011;33951;51.988;5.910;2023-11-21T15:11:33;34.97;;;22.25;;
47513;SDS011;33951;51.988;5.910;2023-11-21T15:14:32;33.55;;;22.52;;
47513;SDS011;33951;51.988;5.910;2023-11-21T15:17:00;32.00;;;23.88;;
47513;SDS011;33951;51.988;5.910;2023-11-21T15:19:27;32.72;;;25.27;;
47513;SDS011;33951;51.988;5.910;2023-11-21T15:21:54;30.10;;;21.58;;
47513;SDS011;33951;51.988;5.910;2023-11-21T15:24:22;32.60;;;23.52;;
47513;SDS011;33951;51.988;5.910;2023-11-21T15:26:47;29.60;;;20.50;;
47513;SDS011;33951;51.988;5.910;2023-11-21T15:29:15;25.27;;;20.48;;
47513;SDS011;33951;51.988;5.910;2023-11-21T15:31:41;22.48;;;19.08;;
47513;SDS011;33951;51.988;5.910;2023-11-21T15:34:12;23.35;;;19.33;;
47513;SDS011;33951;51.988;5.910;2023-11-21T15:36:41;20.15;;;15.90;;
47513;SDS011;33951;51.988;5.910;2023-11-21T15:39:15;21.60;;;16.77;;
47513;SDS011;33951;51.988;5.910;2023-11-21T15:41:50;20.92;;;16.35;;
47513;SDS011;33951;51.988;5.910;2023-11-21T15:44:16;23.58;;;16.60;;
47513;SDS011;33951;51.988;5.910;2023-11-21T15:47:00;19.90;;;14.60;;
47513;SDS011;33951;51.988;5.910;2023-11-21T15:49:33;22.75;;;17.15;;
47513;SDS011;33951;51.988;5.910;2023-11-21T15:52:07;21.35;;;16.98;;
47513;SDS011;33951;51.988;5.910;2023-11-21T15:54:35;18.23;;;15.40;;
47513;SDS011;33951;51.988;5.910;2023-11-21T15:57:02;18.25;;;15.43;;
47513;SDS011;33951;51.988;5.910;2023-11-21T15:59:29;18.30;;;15.38;;
47513;SDS011;33951;51.988;5.910;2023-11-21T17:37:06;34.30;;;23.60;;
47513;SDS011;33951;51.988;5.910;2023-11-21T17:39:31;26.80;;;20.40;;
47513;SDS011;33951;51.988;5.910;2023-11-21T17:41:57;32.58;;;21.67;;
47513;SDS011;33951;51.988;5.910;2023-11-21T17:44:26;29.48;;;20.90;;
47513;SDS011;33951;51.988;5.910;2023-11-21T17:46:52;34.65;;;23.20;;
47513;SDS011;33951;51.988;5.910;2023-11-21T17:49:17;32.53;;;22.00;;
47513;SDS011;33951;51.988;5.910;2023-11-21T17:51:43;27.50;;;20.17;;
47513;SDS011;33951;51.988;5.910;2023-11-21T17:54:08;27.60;;;20.83;;
47513;SDS011;33951;51.988;5.910;2023-11-21T17:56:34;24.35;;;19.05;;
47513;SDS011;33951;51.988;5.910;2023-11-21T17:59:03;25.95;;;18.98;;
47513;SDS011;33951;51.988;5.910;2023-11-21T18:01:34;22.05;;;17.85;;
47513;SDS011;33951;51.988;5.910;2023-11-21T18:04:03;20.00;;;15.95;;
47513;SDS011;33951;51.988;5.910;2023-11-21T18:06:30;21.92;;;17.88;;
47513;SDS011;33951;51.988;5.910;2023-11-21T18:08:59;22.70;;;17.17;;
47513;SDS011;33951;51.988;5.910;2023-11-21T18:11:26;21.38;;;16.40;;
47513;SDS011;33951;51.988;5.910;2023-11-21T18:13:54;21.10;;;17.75;;
47513;SDS011;33951;51.988;5.910;2023-11-21T18:16:30;20.90;;;16.70;;
47513;SDS011;33951;51.988;5.910;2023-11-21T18:18:59;28.52;;;19.83;;
47513;SDS011;33951;51.988;5.910;2023-11-21T18:21:24;23.40;;;17.95;;
47513;SDS011;33951;51.988;5.910;2023-11-21T18:23:50;23.77;;;17.52;;
47513;SDS011;33951;51.988;5.910;2023-11-21T18:26:29;21.10;;;16.60;;
47513;SDS011;33951;51.988;5.910;2023-11-21T18:28:57;24.85;;;19.23;;
47513;SDS011;33951;51.988;5.910;2023-11-21T18:31:26;22.88;;;18.25;;
47513;SDS011;33951;51.988;5.910;2023-11-21T18:33:51;21.67;;;16.25;;
47513;SDS011;33951;51.988;5.910;2023-11-21T18:36:22;25.10;;;18.30;;
47513;SDS011;33951;51.988;5.910;2023-11-21T18:42:17;25.70;;;18.30;;
47513;SDS011;33951;51.988;5.910;2023-11-21T18:44:52;21.58;;;17.15;;
47513;SDS011;33951;51.988;5.910;2023-11-21T19:01:04;20.38;;;15.48;;
47513;SDS011;33951;51.988;5.910;2023-11-21T19:10:59;19.65;;;15.00;;
47513;SDS011;33951;51.988;5.910;2023-11-21T19:14:15;25.13;;;15.48;;
47513;SDS011;33951;51.988;5.910;2023-11-21T19:20:24;21.80;;;16.42;;
47513;SDS011;33951;51.988;5.910;2023-11-21T19:22:48;26.50;;;19.05;;
47513;SDS011;33951;51.988;5.910;2023-11-21T19:25:20;24.83;;;17.42;;
47513;SDS011;33951;51.988;5.910;2023-11-21T19:28:20;23.95;;;17.38;;
47513;SDS011;33951;51.988;5.910;2023-11-21T19:31:03;24.85;;;17.73;;
47513;SDS011;33951;51.988;5.910;2023-11-21T19:33:52;28.70;;;18.70;;
47513;SDS011;33951;51.988;5.910;2023-11-21T19:36:41;24.73;;;18.27;;
47513;SDS011;33951;51.988;5.910;2023-11-21T19:39:13;23.65;;;17.42;;
47513;SDS011;33951;51.988;5.910;2023-11-21T19:41:54;23.92;;;16.75;;
47513;SDS011;33951;51.988;5.910;2023-11-21T19:44:44;25.52;;;17.92;;
47513;SDS011;33951;51.988;5.910;2023-11-21T19:47:20;21.80;;;16.23;;
47513;SDS011;33951;51.988;5.910;2023-11-21T19:50:14;28.80;;;20.30;;
47513;SDS011;33951;51.988;5.910;2023-11-21T19:53:03;28.98;;;20.92;;
47513;SDS011;33951;51.988;5.910;2023-11-21T20:01:00;30.55;;;21.73;;
47513;SDS011;33951;51.988;5.910;2023-11-21T20:03:26;29.73;;;20.48;;
47513;SDS011;33951;51.988;5.910;2023-11-21T20:05:54;26.33;;;19.33;;
47513;SDS011;33951;51.988;5.910;2023-11-21T20:08:26;26.27;;;17.65;;
